Time;durP1;ratioP1;P1;durP2;ratioP2;P2;SDS_P1;SDS_P2;PMS_P1;PMS_P2;Temp;Humidity;BMP_temperature;BMP_pressure;BME280_temperature;BME280_humidity;BME280_pressure;Samples;Min_cycle;Max_cycle;Signal;HPM_P1;HPM_P2
2022/05/27 00:01:28;;;;;;;18.00;5.28;;;;;;;13.46;100.00;101666.38;4865889;29;20060;-77
2022/05/27 00:03:59;;;;;;;15.30;4.47;;;;;;;13.41;100.00;101645.16;4861498;29;20044;-76
2022/05/27 00:06:29;;;;;;;16.60;4.38;;;;;;;13.40;100.00;101645.13;4845571;29;20419;-76
2022/05/27 00:08:58;;;;;;;14.32;3.90;;;;;;;13.37;100.00;101645.16;4828523;29;20057;-76
2022/05/27 00:11:27;;;;;;;13.48;3.88;;;;;;;13.34;100.00;101639.81;4862212;29;20613;-77
2022/05/27 00:13:56;;;;;;;16.33;3.92;;;;;;;13.32;100.00;101636.28;4868526;29;20064;-77
2022/05/27 00:16:24;;;;;;;13.80;3.70;;;;;;;13.31;100.00;101645.09;4867874;29;20064;-78
2022/05/27 00:18:53;;;;;;;14.85;4.25;;;;;;;13.27;100.00;101634.47;4838774;29;20411;-77
2022/05/27 00:21:21;;;;;;;11.27;3.50;;;;;;;13.25;100.00;101640.63;4834099;29;20064;-77
2022/05/27 00:23:51;;;;;;;18.05;3.85;;;;;;;13.24;100.00;101638.88;4853401;29;20689;-77
2022/05/27 00:26:19;;;;;;;16.02;3.58;;;;;;;13.20;100.00;101645.91;4844727;29;20185;-76
2022/05/27 00:28:48;;;;;;;13.45;3.65;;;;;;;13.16;100.00;101652.06;4863772;29;20056;-77
2022/05/27 00:31:18;;;;;;;10.98;3.40;;;;;;;13.14;100.00;101653.81;4878028;29;20381;-76
2022/05/27 00:33:47;;;;;;;;;;;;;;;13.09;100.00;101638.78;4835788;29;20142;-77
2022/05/27 00:36:15;;;;;;;12.77;3.90;;;;;;;13.06;100.00;101656.44;4860022;29;19931;-77
2022/05/27 00:38:44;;;;;;;15.85;4.13;;;;;;;13.02;100.00;101659.03;4856364;29;20057;-77
2022/05/27 00:41:13;;;;;;;13.82;3.33;;;;;;;13.00;100.00;101655.50;4815602;29;20040;-77
2022/05/27 00:43:42;;;;;;;14.30;3.90;;;;;;;12.96;100.00;101659.00;4846833;29;20172;-77
2022/05/27 00:46:14;;;;;;;18.30;3.95;;;;;;;12.90;100.00;101658.97;4854995;29;20045;-77
2022/05/27 00:48:46;;;;;;;20.40;4.28;;;;;;;12.85;100.00;101667.75;4851087;29;20065;-77
2022/05/27 00:51:19;;;;;;;18.30;3.75;;;;;;;12.82;100.00;101673.00;4853109;29;20041;-77
2022/05/27 00:53:57;;;;;;;14.07;3.97;;;;;;;12.76;100.00;101659.75;4859635;29;20264;-77
2022/05/27 00:56:30;;;;;;;15.52;4.07;;;;;;;12.72;100.00;101660.63;4845836;29;20060;-77
2022/05/27 00:59:04;;;;;;;18.75;3.58;;;;;;;12.68;100.00;101666.72;4855033;29;20053;-77
2022/05/27 01:01:33;;;;;;;16.83;4.00;;;;;;;12.65;100.00;101674.66;4860877;29;20416;-82
2022/05/27 01:04:03;;;;;;;15.80;3.58;;;;;;;12.64;100.00;101678.16;4873419;29;20053;-82
2022/05/27 01:06:32;;;;;;;13.95;2.90;;;;;;;12.62;100.00;101674.63;4857656;29;20253;-80
2022/05/27 01:09:02;;;;;;;16.73;3.30;;;;;;;12.59;100.00;101677.22;4855919;29;20053;-80
2022/05/27 01:11:49;;;;;;;12.63;3.28;;;;;;;12.54;100.00;101681.63;4843254;29;20454;-80
2022/05/27 01:14:31;;;;;;;15.05;3.08;;;;;;;12.50;100.00;101679.81;4859986;29;20052;-80
2022/05/27 01:17:13;;;;;;;14.32;3.08;;;;;;;12.46;100.00;101679.78;4860631;29;20037;-80
2022/05/27 01:22:54;;;;;;;10.10;3.50;;;;;;;12.38;100.00;101692.06;4857453;29;20403;-80
2022/05/27 01:25:46;;;;;;;17.88;3.70;;;;;;;12.36;100.00;101692.91;4847293;29;20129;-81
2022/05/27 01:28:46;;;;;;;12.70;3.72;;;;;;;12.31;100.00;101698.16;4837524;29;20056;-80
2022/05/27 01:31:37;;;;;;;19.15;4.13;;;;;;;12.29;100.00;101692.84;4858784;29;20041;-80
2022/05/27 01:34:20;;;;;;;14.05;3.70;;;;;;;12.27;100.00;101693.72;4875362;29;20530;-80
2022/05/27 01:37:16;;;;;;;18.33;3.50;;;;;;;12.25;100.00;101696.34;4872900;29;20053;-80
2022/05/27 01:39:48;;;;;;;16.38;3.15;;;;;;;12.21;100.00;101701.56;4870235;29;20045;-81
2022/05/27 01:42:43;;;;;;;16.30;3.10;;;;;;;12.15;100.00;101696.22;4853420;29;20037;-81
2022/05/27 01:45:34;;;;;;;17.17;2.95;;;;;;;12.12;100.00;101694.44;4878655;29;20057;-80
2022/05/27 01:48:13;;;;;;;15.63;3.70;;;;;;;12.09;100.00;101697.91;4869855;29;20045;-80
2022/05/27 01:50:54;;;;;;;11.15;2.83;;;;;;;12.05;100.00;101701.41;4852603;29;20061;-80
2022/05/27 01:53:26;;;;;;;;;;;;;;;12.01;100.00;101702.25;4864678;29;20049;-80
2022/05/27 01:56:02;;;;;;;15.38;3.33;;;;;;;12.00;100.00;101705.78;4875988;29;19930;-81
2022/05/27 01:58:38;;;;;;;12.90;3.10;;;;;;;11.98;100.00;101701.31;4850089;29;20064;-81
2022/05/27 02:01:11;;;;;;;15.50;2.60;;;;;;;11.94;100.00;101696.88;4873801;29;20049;-80
2022/05/27 02:03:44;;;;;;;11.95;3.20;;;;;;;11.91;100.00;101700.38;4847918;29;20291;-80
2022/05/27 02:06:24;;;;;;;11.82;2.53;;;;;;;11.86;100.00;101702.91;4874025;29;20064;-80
2022/05/27 02:09:08;;;;;;;16.83;2.92;;;;;;;11.83;100.00;101699.34;4862225;29;20380;-80
2022/05/27 02:11:39;;;;;;;17.38;3.78;;;;;;;11.80;100.00;101701.97;4833567;29;20280;-80
2022/05/27 02:14:24;;;;;;;13.50;3.42;;;;;;;11.79;100.00;101701.06;4873069;29;20049;-79
2022/05/27 02:16:59;;;;;;;11.18;2.15;;;;;;;11.77;100.00;101699.28;4868187;29;20041;-79
2022/05/27 02:19:28;;;;;;;12.50;2.70;;;;;;;11.74;100.00;101702.78;4851047;29;20061;-81
2022/05/27 02:22:02;;;;;;;15.30;3.30;;;;;;;11.74;100.00;101694.88;4853316;29;20376;-81
2022/05/27 02:24:39;;;;;;;13.85;3.42;;;;;;;11.71;100.00;101694.81;4869151;29;20218;-82
2022/05/27 02:27:21;;;;;;;12.55;3.20;;;;;;;11.68;100.00;101700.06;4829017;29;20069;-80
2022/05/27 02:30:06;;;;;;;14.32;3.60;;;;;;;11.67;100.00;101696.53;4857083;29;20354;-80
2022/05/27 02:32:42;;;;;;;15.93;3.30;;;;;;;11.66;100.00;101701.78;4868307;29;20180;-80
2022/05/27 02:35:25;;;;;;;14.23;3.97;;;;;;;11.64;100.00;101703.53;4862434;29;20056;-80
2022/05/27 02:37:58;;;;;;;13.25;3.58;;;;;;;11.59;100.00;101706.13;4886189;29;20516;-80
2022/05/27 02:40:40;;;;;;;15.80;3.58;;;;;;;11.56;100.00;101711.34;4853674;29;20046;-80
2022/05/27 02:43:24;;;;;;;11.90;2.92;;;;;;;11.51;100.00;101702.47;4858414;29;20514;-80
2022/05/27 02:46:25;;;;;;;20.83;3.45;;;;;;;11.48;100.00;101708.63;4861801;29;20049;-80
2022/05/27 02:48:59;;;;;;;;;;;;;;;11.39;100.00;101715.53;4857448;29;20060;-81
2022/05/27 02:51:32;;;;;;;;;;;;;;;11.38;100.00;101711.09;4856696;29;19924;-81
2022/05/27 02:54:04;;;;;;;;;;;;;;;11.36;100.00;101710.19;4889448;29;19934;-81
2022/05/27 02:56:51;;;;;;;;;;;;;;;11.31;100.00;101705.75;4871845;29;19924;-81
2022/05/27 02:59:20;;;;;;;;;;;;;;;11.30;100.00;101713.63;4856509;29;19915;-82
2022/05/27 03:01:48;;;;;;;;;;;;;;;11.28;100.00;101715.38;4878984;29;19924;-81
2022/05/27 03:04:18;;;;;;;;;;;;;;;11.25;100.00;101713.59;4838914;29;19935;-81
2022/05/27 03:06:54;;;;;;;;;;;;;;;11.23;100.00;101704.75;4836263;29;20594;-81
2022/05/27 03:09:39;;;;;;;;;;;;;;;11.21;100.00;101717.06;4871521;29;19931;-80
2022/05/27 03:12:21;;;;;;;;;;;;;;;11.18;100.00;101711.72;4872585;29;19924;-81
2022/05/27 03:14:59;;;;;;;;;;;;;;;11.17;100.00;101709.06;4851407;29;20317;-81
2022/05/27 03:17:46;;;;;;;;;;;;;;;11.15;100.00;101711.66;4874822;29;20400;-81
2022/05/27 03:20:14;;;;;;;;;;;;;;;11.11;100.00;101709.84;4874394;29;19908;-81
2022/05/27 03:22:52;;;;;;;;;;;;;;;11.10;100.00;101714.25;4862940;29;20523;-81
2022/05/27 03:25:27;;;;;;;;;;;;;;;11.09;100.00;101708.94;4858063;29;19924;-82
2022/05/27 03:28:13;;;;;;;;;;;;;;;11.09;100.00;101709.81;4859029;29;19924;-81
2022/05/27 03:30:55;;;;;;;;;;;;;;;11.08;100.00;101710.69;4833435;29;20491;-81
2022/05/27 03:33:29;;;;;;;;;;;;;;;11.11;100.00;101704.56;4875977;29;19947;-82
2022/05/27 03:36:18;;;;;;;;;;;;;;;11.13;100.00;101708.13;4865005;29;19924;-81
2022/05/27 03:38:54;;;;;;;;;;;;;;;11.12;100.00;101707.25;4858985;29;19932;-81
2022/05/27 03:41:26;;;;;;;;;;;;;;;11.12;100.00;101711.63;4869956;29;19931;-81
2022/05/27 03:43:54;;;;;;;;;;;;;;;11.12;100.00;101706.38;4859572;29;19928;-81
2022/05/27 03:46:30;;;;;;;;;;;;;;;11.07;100.00;101715.94;4840093;29;19924;-81
2022/05/27 03:48:59;;;;;;;;;;;;;;;11.04;100.00;101713.25;4879557;29;19931;-81
2022/05/27 03:51:29;;;;;;;;;;;;;;;11.00;100.00;101711.44;4854375;29;19936;-81
2022/05/27 03:54:03;;;;;;;;;;;;;;;10.99;100.00;101717.59;4879194;29;19924;-81
2022/05/27 03:56:36;;;;;;;;;;;;;;;10.98;100.00;101721.06;4874287;29;20386;-81
2022/05/27 03:59:05;;;;;;;;;;;;;;;10.93;100.00;101716.63;4865940;29;19924;-80
2022/05/27 04:01:34;;;;;;;;;;;;;;;10.91;100.00;101713.06;4856304;29;19924;-81
2022/05/27 04:04:04;;;;;;;;;;;;;;;10.87;100.00;101700.72;4876757;29;19923;-81
2022/05/27 04:06:33;;;;;;;;;;;;;;;10.85;100.00;101702.44;4864806;29;20131;-81
2022/05/27 04:09:01;;;;;;;;;;;;;;;10.81;100.00;101707.63;4874257;29;19931;-80
2022/05/27 04:11:30;;;;;;;;;;;;;;;10.77;100.00;101711.09;4874123;29;19928;-81
2022/05/27 04:13:58;;;;;;;;;;;;;;;10.75;100.00;101703.13;4876701;29;19924;-81
2022/05/27 04:16:26;;;;;;;;;;;;;;;10.73;100.00;101707.50;4852448;29;19932;-80
2022/05/27 04:18:54;;;;;;;;;;;;;;;10.69;100.00;101717.09;4877328;29;19924;-81
2022/05/27 04:21:23;;;;;;;;;;;;;;;10.67;100.00;101707.41;4874881;29;19924;-81
2022/05/27 04:23:51;;;;;;;;;;;;;;;10.62;100.00;101717.88;4868776;29;19950;-80
2022/05/27 04:26:20;;;;;;;;;;;;;;;10.60;100.00;101710.81;4875501;29;19961;-81
2022/05/27 04:28:49;;;;;;;;;;;;;;;10.60;100.00;101710.81;4875698;29;19923;-81
2022/05/27 04:31:17;;;;;;;;;;;;;;;10.60;100.00;101713.44;4887042;29;19931;-81
2022/05/27 04:33:48;;;;;;;;;;;;;;;10.61;100.00;101717.88;4866371;29;20562;-81
2022/05/27 04:36:16;;;;;;;;;;;;;;;10.64;100.00;101717.91;4875621;29;19935;-81
2022/05/27 04:38:44;;;;;;;;;;;;;;;10.69;100.00;101719.75;4848253;29;20332;-81
2022/05/27 04:41:13;;;;;;;;;;;;;;;10.74;100.00;101725.13;4860477;29;19924;-81
2022/05/27 04:43:41;;;;;;;;;;;;;;;10.80;100.00;101732.25;4871393;29;19924;-81
2022/05/27 04:46:09;;;;;;;;;;;;;;;10.86;100.00;101735.84;4856757;29;20382;-81
2022/05/27 04:48:37;;;;;;;;;;;;;;;10.91;100.00;101728.03;4853692;29;19924;-81
2022/05/27 04:51:07;;;;;;;;;;;;;;;10.97;100.00;101741.31;4877309;29;19931;-80
2022/05/27 04:53:35;;;;;;;;;;;;;;;11.05;100.00;101742.28;4865720;29;19935;-80
2022/05/27 04:56:03;;;;;;;;;;;;;;;11.12;100.00;101738.00;4854370;29;19931;-80
2022/05/27 04:58:32;;;;;;;;;;;;;;;11.18;100.00;101738.09;4865404;29;20151;-80
2022/05/27 05:01:01;;;;;;;;;;;;;;;11.23;100.00;101746.97;4842446;29;19931;-81
2022/05/27 05:03:29;;;;;;;;;;;;;;;11.29;100.00;101754.09;4845825;29;19924;-81
2022/05/27 05:05:57;;;;;;;;;;;;;;;11.40;100.00;101746.31;4874300;29;19927;-79
2022/05/27 05:08:33;;;;;;;;;;;;;;;11.48;100.00;101747.34;4872913;29;19923;-80
2022/05/27 05:11:03;;;;;;;;;;;;;;;11.49;100.00;101743.81;4870272;29;19931;-81
2022/05/27 05:13:32;;;;;;;;;;;;;;;11.48;100.00;101747.34;4858153;29;19924;-81
2022/05/27 05:16:00;;;;;;;;;;;;;;;11.48;100.00;101742.94;4891817;29;19931;-81
2022/05/27 05:18:29;;;;;;;;;;;;;;;11.46;100.00;101743.78;4857117;29;19924;-81
2022/05/27 05:20:57;;;;;;;;;;;;;;;11.47;100.00;101748.19;4859721;29;19930;-80
2022/05/27 05:23:27;;;;;;;;;;;;;;;11.48;100.00;101742.94;4873519;29;20309;-81
2022/05/27 05:25:55;;;;;;;;;;;;;;;11.46;100.00;101747.31;4876547;29;19924;-81
2022/05/27 05:28:24;;;;;;;;;;;;;;;11.52;100.00;101744.75;4873486;29;19938;-82
2022/05/27 05:30:52;;;;;;;;;;;;;;;11.58;100.00;101748.34;4854306;29;19924;-80
2022/05/27 05:33:20;;;;;;;;;;;;;;;11.61;100.00;101754.53;4872271;29;20281;-81
2022/05/27 05:35:49;;;;;;;;;;;;;;;11.62;100.00;101751.03;4841473;29;19931;-81
2022/05/27 05:38:19;;;;;;;;;;;;;;;11.61;100.00;101754.53;4875654;29;19931;-81
2022/05/27 05:40:47;;;;;;;;;;;;;;;11.59;100.00;101750.13;4890015;29;19923;-80
2022/05/27 05:43:15;;;;;;;;;;;;;;;11.58;100.00;101759.78;4871775;29;19923;-81
2022/05/27 05:45:44;;;;;;;;;;;;;;;11.59;100.00;101752.75;4856937;29;20286;-80
2022/05/27 05:48:15;;;;;;;;;;;;;;;11.78;100.00;101746.84;4872979;29;20313;-81
2022/05/27 05:50:43;;;;;;;;;;;;;;;12.14;100.00;101744.66;4856438;29;19931;-81
2022/05/27 05:53:13;;;;;;;;;;;;;;;12.37;100.00;101750.19;4849702;29;19924;-81
2022/05/27 05:55:41;;;;;;;;;;;;;;;12.47;100.00;101749.41;4882154;29;19934;-81
2022/05/27 05:58:10;;;;;;;;;;;;;;;12.47;100.00;101750.28;4877497;29;19931;-81
2022/05/27 06:00:38;;;;;;;;;;;;;;;12.42;100.00;101749.38;4864856;29;19923;-81
2022/05/27 06:03:06;;;;;;;;;;;;;;;12.38;100.00;101744.94;4860011;29;19924;-81
2022/05/27 06:05:37;;;;;;;;;;;;;;;12.47;100.00;101755.56;4847082;29;19924;-81
2022/05/27 06:08:05;;;;;;;;;;;;;;;12.48;100.00;101754.69;4868122;29;19931;-81
2022/05/27 06:10:33;;;;;;;;;;;;;;;12.43;100.00;101761.69;4871949;29;20115;-80
2022/05/27 06:13:01;;;;;;;;;;;;;;;12.53;100.00;101753.84;4876171;29;19938;-80
2022/05/27 06:15:29;;;;;;;;;;;;;;;12.96;100.00;101759.53;4868926;29;19923;-81
2022/05/27 06:17:59;;;;;;;;;;;;;;;13.14;100.00;101762.31;4850012;29;19931;-80
2022/05/27 06:20:30;;;;;;;;;;;;;;;13.43;100.00;101756.34;4850393;29;19998;-81
2022/05/27 06:22:58;;;;;;;;;;;;;;;13.78;100.00;101753.00;4875990;29;20306;-81
2022/05/27 06:25:26;;;;;;;;;;;;;;;14.04;98.36;101756.66;4858105;29;19931;-82
2022/05/27 06:34:23;;;;;;;;;;;;;;;14.23;99.07;101754.94;4856916;29;20406;-80
2022/05/27 06:36:18;;;;;;;;;;;;;;;14.21;94.65;101761.09;4863532;29;19923;-80
2022/05/27 06:38:46;;;;;;;;;;;;;;;13.98;94.87;101761.91;4865803;29;19950;-81
2022/05/27 06:41:15;;;;;;;;;;;;;;;13.53;92.42;101757.28;4860897;29;19924;-81
2022/05/27 06:43:45;;;;;;;;;;;;;;;13.42;93.21;101750.19;4887005;29;19943;-81
2022/05/27 06:46:14;;;;;;;;;;;;;;;13.33;93.11;101773.94;4867071;29;19923;-81
2022/05/27 06:48:42;;;;;;;;;;;;;;;13.35;93.77;101768.66;4857102;29;19924;-80
2022/05/27 06:51:11;;;;;;;;;;;;;;;13.43;94.15;101767.81;4861316;29;19924;-80
2022/05/27 06:53:39;;;;;;;;;;;;;;;13.49;91.65;101771.41;4860909;29;19946;-80
2022/05/27 06:56:08;;;;;;;;;;;;;;;13.52;86.68;101772.31;4861655;29;19931;-81
2022/05/27 06:58:37;;;;;;;;;;;;;;;13.54;83.28;101773.19;4859061;29;20218;-80
2022/05/27 07:01:06;;;;;;;;;;;;;;;13.57;84.18;101769.66;4858013;29;19931;-80
2022/05/27 07:03:37;;;;;;;;;;;;;;;13.58;84.21;101774.97;4863448;29;20039;-80
2022/05/27 07:06:10;;;;;;;;;;;;;;;13.63;84.18;101767.06;4864850;29;19924;-80
2022/05/27 07:08:39;;;;;;;;;;;;;;;13.62;83.60;101770.59;4853033;29;20221;-81
2022/05/27 07:11:07;;;;;;;;;;;;;;;13.73;86.81;101770.66;4880135;29;19924;-81
2022/05/27 07:13:35;;;;;;;;;;;;;;;13.72;84.37;101790.06;4876155;29;19947;-82
2022/05/27 07:16:04;;;;;;;;;;;;;;;13.67;81.38;101781.19;4854672;29;19923;-81
2022/05/27 07:18:33;;;;;;;;;;;;;;;13.64;83.05;101771.47;4854871;29;20112;-81
2022/05/27 07:21:05;;;;;;;;;;;;;;;13.62;82.50;101787.34;4850585;29;19924;-81
2022/05/27 07:23:34;;;;;;;;;;;;;;;13.71;83.14;101783.88;4856085;29;22283;-81
2022/05/27 07:26:02;;;;;;;;;;;;;;;13.71;82.41;101793.59;4879113;29;19924;-81
2022/05/27 07:28:30;;;;;;;;;;;;;;;13.63;77.28;101799.72;4878888;29;19924;-81
2022/05/27 07:31:01;;;;;;;;;;;;;;;13.71;80.57;101793.59;4873521;29;20449;-80
2022/05/27 07:33:40;;;;;;;;;;;;;;;13.79;77.46;101786.56;4871193;29;20032;-81
2022/05/27 07:36:08;;;;;;;;;;;;;;;13.83;79.42;101788.34;4881161;29;19924;-81
2022/05/27 07:38:36;;;;;;;;;;;;;;;13.87;78.09;101784.81;4858262;29;20458;-82
2022/05/27 07:41:05;;;;;;;;;;;;;;;13.82;78.03;101786.59;4857285;29;19928;-81
2022/05/27 07:43:33;;;;;;;;;;;;;;;13.81;80.09;101779.50;4869127;29;20130;-81
2022/05/27 07:46:02;;;;;;;;;;;;;;;13.75;79.64;101784.78;4863824;29;20281;-81
2022/05/27 07:48:30;;;;;;;;;;;;;;;13.81;79.99;101788.34;4851308;29;20298;-81
2022/05/27 07:50:58;;;;;;;;;;;;;;;13.95;80.47;101774.25;4893073;29;19924;-79
2022/05/27 07:53:27;;;;;;;;;;;;;;;13.99;78.89;101762.81;4839993;29;19924;-81
2022/05/27 07:55:58;;;;;;;;;;;;;;;13.87;80.44;101784.81;4871292;29;19924;-81
2022/05/27 07:58:26;;;;;;;;;;;;;;;13.71;79.55;101789.19;4862349;29;20309;-82
2022/05/27 08:00:55;;;;;;;;;;;;;;;13.61;79.19;101788.25;4855485;29;19995;-81
2022/05/27 08:03:23;;;;;;;;;;;;;;;13.55;82.44;101798.78;4862204;29;19924;-81
2022/05/27 08:05:52;;;;;;;;;;;;;;;13.55;83.07;101784.66;4872680;29;20031;-81
2022/05/27 08:08:20;;;;;;;;;;;;;;;13.62;81.51;101795.28;4868726;29;19924;-82
2022/05/27 08:10:48;;;;;;;;;;;;;;;13.58;80.15;101788.22;4847477;29;19932;-81
2022/05/27 08:13:17;;;;;;;;;;;;;;;13.45;81.90;101786.38;4846917;29;19935;-81
2022/05/27 08:15:45;;;;;;;;;;;;;;;13.55;83.53;101789.97;4877170;29;19924;-81
2022/05/27 08:18:13;;;;;;;;;;;;;;;13.62;84.51;101795.28;4873859;29;19943;-80
2022/05/27 08:20:43;;;;;;;;;;;;;;;13.63;82.36;101791.78;4865717;29;19932;-80
2022/05/27 08:23:11;;;;;;;;;;;;;;;13.56;82.52;101797.91;4895300;29;20296;-84
2022/05/27 08:25:39;;;;;;;;;;;;;;;13.47;82.73;101808.44;4845724;29;19931;-81
2022/05/27 08:28:08;;;;;;;;;;;;;;;13.52;86.30;101801.44;4853718;29;19923;-81
2022/05/27 08:30:38;;;;;;;;;;;;;;;13.54;86.96;101807.63;4869905;29;20130;-81
2022/05/27 08:33:07;;;;;;;;;;;;;;;13.65;87.72;101799.75;4860530;29;20293;-82
2022/05/27 08:38:27;;;;;;;;;;;;;;;13.81;84.38;101812.16;4875460;29;19924;-82
2022/05/27 08:41:21;;;;;;;;;;;;;;;13.94;86.09;101812.25;4861263;29;19919;-83
2022/05/27 08:43:55;;;;;;;;;;;;;;;13.87;83.15;101811.31;4879946;29;19924;-82
2022/05/27 08:46:42;;;;;;;;;;;;;;;13.76;82.47;101818.31;4877091;29;19931;-82
2022/05/27 08:49:14;;;;;;;;;;;;;;;13.60;83.99;101827.97;4857755;29;19935;-81
2022/05/27 08:51:49;;;;;;;;;;;;;;;13.62;86.28;101813.84;4866362;29;19946;-81
2022/05/27 08:54:39;;;;;;;;;;;;;;;13.76;85.93;101816.59;4873270;29;19924;-82
2022/05/27 09:00:00;;;;;;;;;;;;;;;13.89;84.01;101814.84;4871525;29;20286;-80
2022/05/27 09:02:35;;;;;;;;;;;;;;;13.99;84.35;101819.34;4861985;29;19923;-81
2022/05/27 09:05:15;;;;;;;;;;;;;;;14.06;85.05;101808.75;4866608;29;19931;-81
2022/05/27 09:07:55;;;;;;;;;;;;;;;14.04;85.61;101820.25;4870305;29;20162;-81
2022/05/27 09:10:33;;;;;;;;;;;;;;;14.02;87.41;101829.06;4866943;29;19924;-81
2022/05/27 09:13:01;;;;;;;;;;;;;;;14.04;85.37;101822.91;4848492;29;19930;-82
2022/05/27 09:15:59;;;;;;;;;;;;;;;14.18;86.04;101822.06;4865013;29;19934;-80
2022/05/27 09:18:37;;;;;;;;;;;;;;;14.30;86.35;101829.19;4884066;29;20202;-82
2022/05/27 09:21:13;;;;;;;;;;;;;;;14.36;86.40;101838.03;4885540;29;19924;-82
2022/05/27 09:23:55;;;;;;;;;;;;;;;14.37;84.95;101836.28;4857952;29;20123;-81
2022/05/27 09:26:27;;;;;;;;;;;;;;;14.28;83.67;101831.81;4863807;29;19924;-82
2022/05/27 09:28:58;;;;;;;;;;;;;;;14.39;84.29;101827.44;4881274;29;19924;-82
2022/05/27 09:31:41;;;;;;;;;;;;;;;14.44;84.40;101835.41;4856286;29;20248;-82
2022/05/27 09:34:11;;;;;;;;;;;;;;;14.37;81.74;101839.81;4865543;29;19923;-82
2022/05/27 09:36:51;;;;;;;;;;;;;;;14.18;82.60;101844.16;4877656;29;19939;-82
2022/05/27 09:39:21;;;;;;;;;;;;;;;14.00;83.79;101844.94;4863885;29;19939;-81
2022/05/27 09:42:05;;;;;;;;;;;;;;;13.88;84.29;101852.84;4870065;29;19924;-82
2022/05/27 09:44:46;;;;;;;;;;;;;;;13.96;86.30;101850.25;4875743;29;19927;-82
2022/05/27 09:47:16;;;;;;;;;;;;;;;13.98;85.62;101849.34;4874542;29;19935;-81
2022/05/27 09:49:47;;;;;;;;;;;;;;;14.02;85.49;101863.50;4871253;29;20402;-80
2022/05/27 09:52:15;;;;;;;;;;;;;;;13.99;86.03;101843.19;4866491;29;19935;-82
2022/05/27 09:54:46;;;;;;;;;;;;;;;14.14;83.67;101850.34;4873022;29;19927;-82
2022/05/27 09:57:17;;;;;;;;;;;;;;;14.27;85.62;101843.28;4863411;29;19924;-81
2022/05/27 09:59:47;;;;;;;;;;;;;;;14.44;83.20;101843.34;4859934;29;19932;-82
2022/05/27 10:02:15;;;;;;;;;;;;;;;14.37;80.84;101853.06;4859703;29;20150;-82
2022/05/27 10:05:07;;;;;;;;;;;;;;;14.32;80.49;101852.16;4874258;29;19924;-82
2022/05/27 10:07:43;;;;;;;;;;;;;;;14.18;81.22;101856.53;4866587;29;19924;-81
2022/05/27 10:10:14;;;;;;;;;;;;;;;14.27;82.03;101864.50;4874525;29;19931;-81
2022/05/27 10:12:43;;;;;;;;;;;;;;;14.25;81.28;101858.31;4868647;29;19923;-82
2022/05/27 10:15:30;;;;;;;;;;;;;;;14.33;79.85;101861.91;4845660;29;19923;-81
2022/05/27 10:18:11;;;;;;;;;;;;;;;14.52;82.61;101860.19;4879973;29;19923;-84
2022/05/27 10:20:40;;;;;;;;;;;;;;;14.69;82.96;101860.28;4888340;29;19966;-82
2022/05/27 10:23:19;;;;;;;;;;;;;;;14.85;82.95;101868.25;4862632;29;19924;-81
2022/05/27 10:25:48;;;;;;;;;;;;;;;15.02;79.33;101877.13;4860864;29;19924;-80
2022/05/27 10:28:29;;;;;;;;;;;;;;;14.93;78.22;101871.81;4870428;29;19939;-81
2022/05/27 10:31:00;;;;;;;;;;;;;;;14.62;77.96;101871.75;4855164;29;19931;-81
2022/05/27 10:33:39;;;;;;;;;;;;;;;14.60;78.79;101873.50;4878772;29;19959;-81
2022/05/27 10:36:22;;;;;;;;;;;;;;;14.72;79.88;101878.84;4875478;29;19931;-81
2022/05/27 10:39:01;;;;;;;;;;;;;;;14.75;82.04;101878.84;4866231;29;19923;-81
2022/05/27 10:41:36;;;;;;;;;;;;;;;14.59;82.09;101869.06;4876201;29;19932;-81
2022/05/27 10:44:13;;;;;;;;;;;;;;;14.42;83.71;101882.25;4858091;29;19924;-82
2022/05/27 10:46:52;;;;;;;;;;;;;;;14.39;84.24;101880.47;4862126;29;20374;-82
2022/05/27 10:49:39;;;;;;;;;;;;;;;14.35;82.48;101883.13;4845296;29;19924;-82
2022/05/27 10:52:15;;;;;;;;;;;;;;;14.29;81.18;101883.97;4862728;29;19924;-81
2022/05/27 10:54:52;;;;;;;;;;;;;;;14.20;81.67;101876.84;4857308;29;19928;-80
2022/05/27 11:03:24;;;;;;;;;;;;;;;14.42;82.20;101877.84;4867816;29;20385;-81
2022/05/27 11:05:52;;;;;;;;;;;;;;;14.39;80.64;101893.72;4876185;29;20305;-81
2022/05/27 11:08:25;;;;;;;;;;;;;;;14.30;83.21;101880.44;4874115;29;19931;-81
2022/05/27 11:10:59;;;;;;;;;;;;;;;14.54;85.09;101879.66;4849154;29;19927;-83
2022/05/27 11:16:42;;;;;;;;;;;;;;;14.55;80.83;101885.81;4872179;29;19938;-84
2022/05/27 11:19:11;;;;;;;;;;;;;;;14.53;82.54;101883.16;4869730;29;19924;-85
2022/05/27 11:21:58;;;;;;;;;;;;;;;14.53;81.20;101893.78;4880360;29;20299;-83
2022/05/27 11:24:48;;;;;;;;;;;;;;;14.40;81.02;101892.88;4859535;29;19939;-85
2022/05/27 11:27:22;;;;;;;;;;;;;;;14.41;82.53;101907.88;4871269;29;19958;-85
2022/05/27 11:30:11;;;;;;;;;;;;;;;14.37;82.01;101900.78;4861197;29;19928;-84
2022/05/27 11:32:58;;;;;;;;;;;;;;;14.46;82.43;101899.06;4857856;29;20408;-84
2022/05/27 11:35:46;;;;;;;;;;;;;;;14.69;83.53;101886.81;4877839;29;19939;-85
2022/05/27 11:38:32;;;;;;;;;;;;;;;14.79;81.30;101900.97;4867474;29;20214;-82
2022/05/27 11:41:09;;;;;;;;;;;;;;;14.77;80.83;101905.41;4876239;29;20376;-82
2022/05/27 11:43:52;;;;;;;;;;;;;;;14.73;80.37;101911.56;4869725;29;19928;-82
2022/05/27 11:46:35;;;;;;;;;;;;;;;14.76;81.78;101896.56;4880158;29;20125;-82
2022/05/27 11:49:19;;;;;;;;;;;;;;;14.81;83.10;101892.13;4843351;29;19928;-82
2022/05/27 11:52:08;;;;;;;;;;;;;;;15.06;81.33;101891.28;4859711;29;20155;-83
2022/05/27 11:54:55;;;;;;;;;;;;;;;15.06;78.24;101893.94;4872922;29;19931;-82
2022/05/27 11:57:43;;;;;;;;;;;;;;;14.89;79.48;101908.06;4875782;29;20475;-81
2022/05/27 12:00:13;;;;;;;;;;;;;;;14.71;77.74;101902.72;4856361;29;19935;-82
2022/05/27 12:02:57;;;;;;;;;;;;;;;14.62;78.18;101907.09;4840339;29;19928;-81
2022/05/27 12:05:31;;;;;;;;;;;;;;;14.75;80.49;101909.81;4873468;29;19927;-82
2022/05/27 12:08:22;;;;;;;;;;;;;;;14.66;77.49;101902.69;4858692;29;20059;-82
2022/05/27 12:10:53;;;;;;;;;;;;;;;14.56;77.82;101898.22;4860396;29;19950;-81
2022/05/27 12:13:34;;;;;;;;;;;;;;;14.49;78.27;101901.72;4874179;29;20297;-82
2022/05/27 12:16:16;;;;;;;;;;;;;;;14.63;80.47;101913.31;4875295;29;20344;-83
2022/05/27 12:18:51;;;;;;;;;;;;;;;14.57;76.73;101889.41;4831428;29;19927;-83
2022/05/27 12:21:22;;;;;;;;;;;;;;;14.38;78.21;101899.91;4870496;29;19935;-82
2022/05/27 12:23:54;;;;;;;;;;;;;;;14.30;78.71;101904.28;4851543;29;19928;-81
2022/05/27 12:26:27;;;;;;;;;;;;;;;14.29;79.51;101905.19;4873722;29;19927;-80
2022/05/27 12:28:58;;;;;;;;;;;;;;;14.31;78.73;101905.16;4869158;29;20297;-80
2022/05/27 12:31:28;;;;;;;;;;;;;;;14.31;78.16;101903.44;4861674;29;19928;-80
2022/05/27 12:33:57;;;;;;;;;;;;;;;14.22;78.91;101895.44;4846639;29;20469;-79
2022/05/27 12:36:26;;;;;;;;;;;;;;;14.34;80.20;101891.94;4826742;29;19928;-80
2022/05/27 12:38:57;;;;;;;;;;;;;;;14.35;79.63;101910.50;4886444;29;20421;-80
2022/05/27 12:41:41;;;;;;;;;;;;;;;14.27;79.73;101906.91;4862896;29;19934;-80
2022/05/27 12:44:09;;;;;;;;;;;;;;;14.53;82.67;101899.06;4871652;29;19928;-80
2022/05/27 12:46:44;;;;;;;;;;;;;;;14.81;83.41;101897.44;4874435;29;19939;-80
2022/05/27 12:49:18;;;;;;;;;;;;;;;15.19;82.22;101882.44;4845724;29;19975;-79
2022/05/27 12:51:46;;;;;;;;;;;;;;;15.50;79.28;101888.66;4867574;29;19946;-80
2022/05/27 12:54:53;;;;;;;;;;;;;;;15.69;76.52;101897.50;4872040;29;19923;-79
2022/05/27 13:03:08;;;;;;;;;;;;;;;15.60;76.24;101909.00;4856183;29;19932;-80
2022/05/27 13:06:07;;;;;;;;;;;;;;;15.75;74.84;101912.59;4849271;29;19931;-80
2022/05/27 13:08:48;;;;;;;;;;;;;;;15.54;75.51;101914.34;4850720;29;19934;-80
2022/05/27 13:11:20;;;;;;;;;;;;;;;15.44;77.60;101906.34;4877080;29;19923;-79
2022/05/27 13:13:51;;;;;;;;;;;;;;;15.38;77.22;101901.94;4860680;29;20055;-81
2022/05/27 13:17:00;;;;;;;;;;;;;;;15.23;77.63;101902.81;4868558;29;19950;-81